Clemson, South Carolina
Current Conditions -  °F | °C
As of 12:54 PM on Thursday 30 Oct 2014 (Local Time) from KCEU Reporting Station
Clear Clear  
Wind Chill: 64°   Ceiling: Unl
Heat Index: 64°   Visibility: 10mi
Dew Point: 38°   Wind: 5mph
Humidity: 38%   Direction: NA
Pressure: 30.06"   Gusts: NA
Location:  34.68°N, 82.84°W
Report Text: KCEU 301654Z AUTO VRB04KT 10SM CLR 18/03 A3006 RMK AO2 SLP175 T01780033
Loading
Personal Weather Stations






























Interactive Weather Map New forecast layout! Learn more

10-Day Weather Forecast

Advertisements
Track Severe Weather on mobile